Time;durP1;ratioP1;P1;durP2;ratioP2;P2;SDS_P1;SDS_P2;PMS_P1;PMS_P2;Temp;Humidity;BMP_temperature;BMP_pressure;BME280_temperature;BME280_humidity;BME280_pressure;Samples;Min_cycle;Max_cycle;Signal;HPM_P1;HPM_P2
2022/04/29 00:00:09;;;;;;;2.80;2.10;;;23.10;51.70;;;;;;5007605;28;20423;-84
2022/04/29 00:02:35;;;;;;;3.13;2.50;;;23.10;51.70;;;;;;5006223;28;20946;-84
2022/04/29 00:05:01;;;;;;;2.30;2.10;;;23.10;51.70;;;;;;5023086;28;20432;-84
2022/04/29 00:07:27;;;;;;;2.20;2.00;;;23.10;51.70;;;;;;5007541;28;20420;-84
2022/04/29 00:09:53;;;;;;;2.60;2.40;;;23.10;51.70;;;;;;5000817;28;20428;-84
2022/04/29 00:12:19;;;;;;;2.73;2.50;;;23.10;51.70;;;;;;5007160;28;20214;-84
2022/04/29 00:14:47;;;;;;;2.53;2.10;;;23.10;51.70;;;;;;5005712;28;20483;-84
2022/04/29 00:17:13;;;;;;;2.27;2.07;;;23.10;51.70;;;;;;5018086;28;20492;-84
2022/04/29 00:19:40;;;;;;;2.30;2.10;;;23.10;51.70;;;;;;5005345;28;20420;-85
2022/04/29 00:22:07;;;;;;;2.50;2.30;;;23.10;51.70;;;;;;5006698;28;20427;-85
2022/04/29 00:24:33;;;;;;;2.37;2.13;;;23.10;51.70;;;;;;4996756;28;20461;-85
2022/04/29 00:26:58;;;;;;;2.23;2.03;;;23.10;51.70;;;;;;5007153;28;20446;-85
2022/04/29 00:29:24;;;;;;;2.70;2.03;;;23.10;51.70;;;;;;5006919;28;20177;-85
2022/04/29 00:31:50;;;;;;;2.50;1.97;;;23.10;51.70;;;;;;5006209;28;20185;-84
2022/04/29 00:34:17;;;;;;;3.60;2.60;;;23.10;51.70;;;;;;5001264;28;20413;-85
2022/04/29 00:36:44;;;;;;;2.50;2.30;;;23.10;51.70;;;;;;5000220;28;20432;-84
2022/04/29 00:39:10;;;;;;;2.40;2.20;;;23.10;51.70;;;;;;5002488;28;20404;-84
2022/04/29 00:41:35;;;;;;;2.23;2.00;;;23.10;51.70;;;;;;5000591;28;20432;-84
2022/04/29 00:44:07;;;;;;;2.00;1.80;;;23.10;51.70;;;;;;5001620;28;20809;-84
2022/04/29 00:46:35;;;;;;;2.17;1.97;;;23.10;51.70;;;;;;5019880;28;20207;-84
2022/04/29 00:49:04;;;;;;;2.40;2.20;;;23.10;51.70;;;;;;5022221;28;20421;-84
2022/04/29 00:51:31;;;;;;;2.10;1.87;;;23.10;51.70;;;;;;5008808;28;20459;-85
2022/04/29 00:53:57;;;;;;;2.43;2.17;;;23.10;51.70;;;;;;5009925;28;20454;-84
2022/04/29 00:56:26;;;;;;;2.20;2.00;;;23.10;51.70;;;;;;5009191;28;20512;-84
2022/04/29 00:59:09;;;;;;;1.90;1.70;;;23.10;51.70;;;;;;5008154;28;20465;-84
2022/04/29 01:01:36;;;;;;;2.13;1.80;;;23.10;51.70;;;;;;5009175;28;20463;-84
2022/04/29 01:04:04;;;;;;;2.13;1.90;;;23.10;51.70;;;;;;5003920;28;20419;-84
2022/04/29 01:06:31;;;;;;;2.00;1.77;;;23.10;51.70;;;;;;4989944;28;20446;-84
2022/04/29 01:08:57;;;;;;;4.13;1.70;;;23.10;51.70;;;;;;5008236;28;20435;-85
2022/04/29 01:11:26;;;;;;;2.37;2.17;;;23.10;51.70;;;;;;5004861;28;20444;-85
2022/04/29 01:13:54;;;;;;;2.10;1.87;;;23.10;51.70;;;;;;5008186;28;20692;-85
2022/04/29 01:16:21;;;;;;;2.43;2.00;;;23.10;51.70;;;;;;5003258;28;20431;-85
2022/04/29 01:18:50;;;;;;;3.63;2.20;;;23.10;51.70;;;;;;5003834;28;20547;-85
2022/04/29 01:21:16;;;;;;;1.90;1.80;;;23.10;51.70;;;;;;5003047;28;20427;-85
2022/04/29 01:23:43;;;;;;;2.40;2.00;;;23.10;51.70;;;;;;5001761;28;20423;-85
2022/04/29 01:26:14;;;;;;;2.27;2.07;;;23.10;51.80;;;;;;5008905;28;20173;-85
2022/04/29 01:28:45;;;;;;;2.27;2.07;;;23.10;51.70;;;;;;5008270;28;20420;-85
2022/04/29 01:31:15;;;;;;;2.20;2.00;;;23.10;51.70;;;;;;5007047;28;20468;-85
2022/04/29 01:33:42;;;;;;;2.13;1.93;;;23.10;51.70;;;;;;5008487;28;20450;-85
2022/04/29 01:36:09;;;;;;;2.07;1.87;;;23.10;51.70;;;;;;4999185;28;20417;-85
2022/04/29 01:38:36;;;;;;;2.30;2.10;;;23.10;51.70;;;;;;5008980;28;20910;-85
2022/04/29 01:41:07;;;;;;;2.00;1.53;;;23.10;51.70;;;;;;5008656;28;20428;-85
2022/04/29 01:43:34;;;;;;;2.40;2.00;;;23.10;51.70;;;;;;5002326;28;20427;-85
2022/04/29 01:46:01;;;;;;;3.00;1.90;;;23.10;51.70;;;;;;5005838;28;20499;-85
2022/04/29 01:48:27;;;;;;;1.80;1.70;;;23.10;51.70;;;;;;5007398;28;20444;-85
2022/04/29 01:50:56;;;;;;;2.33;2.00;;;23.10;51.70;;;;;;5004165;28;20453;-85
2022/04/29 01:53:22;;;;;;;2.07;1.90;;;23.10;51.70;;;;;;5007101;28;20424;-85
2022/04/29 01:55:47;;;;;;;1.50;1.40;;;23.10;51.70;;;;;;5006968;28;20417;-85
2022/04/29 01:58:13;;;;;;;1.70;1.50;;;23.10;51.70;;;;;;5007376;28;20446;-85
2022/04/29 02:00:40;;;;;;;2.60;1.83;;;23.10;51.70;;;;;;5005535;28;20181;-85
2022/04/29 02:03:06;;;;;;;1.60;1.50;;;23.10;51.70;;;;;;5006414;28;20415;-85
2022/04/29 02:05:32;;;;;;;2.10;1.87;;;23.10;51.70;;;;;;5006884;28;20416;-85
2022/04/29 02:08:00;;;;;;;2.23;1.97;;;23.10;51.70;;;;;;5006306;28;20432;-85
2022/04/29 02:10:26;;;;;;;1.80;1.60;;;23.10;51.70;;;;;;5007626;28;20416;-85
2022/04/29 02:12:52;;;;;;;1.90;1.77;;;23.10;51.70;;;;;;5004800;28;20471;-85
2022/04/29 02:15:20;;;;;;;2.30;2.10;;;23.10;51.80;;;;;;5007315;28;20420;-85
2022/04/29 02:17:46;;;;;;;1.83;1.70;;;23.10;51.80;;;;;;5008003;28;20187;-85
2022/04/29 02:20:12;;;;;;;2.43;1.80;;;23.10;51.80;;;;;;5007822;28;20451;-85
2022/04/29 02:22:39;;;;;;;1.90;1.70;;;23.10;51.80;;;;;;5003832;28;20514;-85
2022/04/29 02:25:05;;;;;;;2.37;2.03;;;23.10;51.70;;;;;;5004193;28;20507;-85
2022/04/29 02:27:31;;;;;;;2.07;1.87;;;23.10;51.70;;;;;;5007331;28;20775;-85
2022/04/29 02:29:58;;;;;;;1.83;1.73;;;23.10;51.80;;;;;;5006366;28;20495;-85
2022/04/29 02:32:24;;;;;;;2.20;2.00;;;23.10;51.70;;;;;;5001451;28;20201;-85
2022/04/29 02:34:50;;;;;;;2.23;1.83;;;23.10;51.70;;;;;;5006326;28;20412;-85
2022/04/29 02:37:16;;;;;;;2.57;1.90;;;23.10;51.70;;;;;;5006832;28;20421;-85
2022/04/29 02:39:44;;;;;;;2.00;1.80;;;23.10;51.70;;;;;;5006907;28;20196;-85
2022/04/29 02:42:10;;;;;;;2.17;1.97;;;23.10;51.70;;;;;;5004759;28;20433;-85
2022/04/29 02:44:36;;;;;;;2.00;1.80;;;23.10;51.70;;;;;;5007310;28;20490;-85
2022/04/29 02:47:07;;;;;;;3.10;1.80;;;23.00;51.60;;;;;;5004912;28;20804;-85
2022/04/29 02:49:38;;;;;;;1.63;1.53;;;23.10;51.70;;;;;;5006901;28;20209;-85
2022/04/29 02:52:06;;;;;;;2.30;2.00;;;23.00;51.60;;;;;;5003677;28;20464;-85
2022/04/29 02:54:31;;;;;;;2.03;1.60;;;23.00;51.60;;;;;;4987361;28;20425;-85
2022/04/29 02:56:58;;;;;;;2.40;2.00;;;23.00;51.60;;;;;;5009703;28;20405;-85
2022/04/29 02:59:24;;;;;;;2.00;1.80;;;23.00;51.70;;;;;;5005931;28;20284;-85
2022/04/29 03:01:49;;;;;;;1.80;1.70;;;23.10;51.80;;;;;;5004816;28;20428;-85
2022/04/29 03:04:15;;;;;;;2.00;1.40;;;23.00;51.70;;;;;;5004116;28;20189;-85
2022/04/29 03:06:42;;;;;;;2.03;1.83;;;23.00;51.70;;;;;;5003537;28;20200;-85
2022/04/29 03:09:07;;;;;;;2.10;1.90;;;23.00;52.30;;;;;;5003223;28;20429;-85
2022/04/29 03:11:34;;;;;;;2.00;1.80;;;23.00;51.70;;;;;;5006396;28;20465;-85
2022/04/29 03:14:00;;;;;;;1.97;1.77;;;23.00;51.70;;;;;;5002977;28;20447;-85
2022/04/29 03:16:25;;;;;;;2.53;2.00;;;23.00;51.70;;;;;;5006416;28;20177;-85
2022/04/29 03:18:51;;;;;;;2.00;1.90;;;23.00;51.70;;;;;;5003488;28;20249;-85
2022/04/29 03:21:20;;;;;;;2.23;1.90;;;23.00;51.70;;;;;;5004038;28;20200;-85
2022/04/29 03:23:47;;;;;;;2.50;1.90;;;23.00;51.70;;;;;;5003679;28;20508;-85
2022/04/29 03:26:13;;;;;;;1.93;1.73;;;23.00;51.70;;;;;;5003266;28;20429;-85
2022/04/29 03:28:39;;;;;;;2.30;2.10;;;23.00;51.70;;;;;;5005658;28;20458;-85
2022/04/29 03:31:08;;;;;;;2.30;2.10;;;23.00;51.70;;;;;;5005516;28;20198;-85
2022/04/29 03:33:34;;;;;;;2.10;1.90;;;23.00;51.80;;;;;;5007934;28;20180;-85
2022/04/29 03:36:00;;;;;;;2.03;1.77;;;23.00;51.80;;;;;;5005135;28;20416;-85
2022/04/29 03:38:26;;;;;;;1.77;1.67;;;23.00;52.30;;;;;;5006419;28;20487;-85
2022/04/29 03:40:53;;;;;;;1.90;1.70;;;23.00;51.80;;;;;;5007554;28;20466;-85
2022/04/29 03:43:19;;;;;;;3.03;2.13;;;23.00;51.80;;;;;;5007523;28;20416;-85
2022/04/29 03:45:48;;;;;;;1.70;1.60;;;23.00;51.80;;;;;;5007499;28;20416;-85
2022/04/29 03:48:14;;;;;;;1.90;1.80;;;23.00;51.80;;;;;;5004845;28;20429;-85
2022/04/29 03:50:40;;;;;;;1.70;1.47;;;23.00;51.80;;;;;;5006183;28;20424;-85
2022/04/29 03:53:06;;;;;;;5.00;3.90;;;23.00;51.80;;;;;;5006684;28;20184;-85
2022/04/29 03:55:35;;;;;;;1.80;1.57;;;22.90;51.70;;;;;;5006542;28;20431;-85
2022/04/29 03:58:03;;;;;;;2.43;1.50;;;23.00;51.80;;;;;;5006140;28;20428;-85
2022/04/29 04:00:33;;;;;;;1.90;1.40;;;22.90;51.80;;;;;;5009343;28;20428;-85
2022/04/29 04:03:00;;;;;;;1.80;1.60;;;22.90;51.80;;;;;;5002339;28;20920;-85
2022/04/29 04:05:26;;;;;;;1.73;1.50;;;22.90;51.80;;;;;;4987801;28;20405;-85
2022/04/29 04:07:52;;;;;;;1.67;1.53;;;22.90;51.80;;;;;;4992149;28;20458;-85
2022/04/29 04:10:18;;;;;;;1.53;1.43;;;22.90;51.80;;;;;;5008366;28;20169;-85
2022/04/29 04:12:49;;;;;;;1.90;1.70;;;22.90;51.80;;;;;;5006193;28;20216;-85
2022/04/29 04:15:18;;;;;;;2.37;1.70;;;22.90;51.80;;;;;;5006893;28;20165;-85
2022/04/29 04:17:44;;;;;;;2.20;2.00;;;22.90;51.80;;;;;;5009105;28;20408;-85
2022/04/29 04:20:12;;;;;;;2.20;2.00;;;22.90;51.80;;;;;;5011118;28;20405;-87
2022/04/29 04:22:38;;;;;;;1.90;1.63;;;22.90;51.80;;;;;;5010866;28;20921;-85
2022/04/29 04:28:29;;;;;;;1.73;1.60;;;22.90;51.80;;;;;;5012506;28;20394;-85
2022/04/29 04:30:55;;;;;;;1.97;1.77;;;22.90;51.90;;;;;;5011057;28;20433;-85
2022/04/29 04:33:20;;;;;;;1.70;1.60;;;22.90;51.90;;;;;;5011574;28;20427;-85
2022/04/29 04:35:46;;;;;;;1.70;1.53;;;22.90;51.90;;;;;;5010528;28;20199;-85
2022/04/29 04:38:14;;;;;;;1.90;1.70;;;22.90;51.90;;;;;;5010354;28;20427;-85
2022/04/29 04:40:40;;;;;;;1.77;1.67;;;22.90;51.90;;;;;;5010838;28;20165;-85
2022/04/29 04:43:06;;;;;;;2.03;1.67;;;22.90;51.90;;;;;;5009222;28;20838;-85
2022/04/29 04:45:32;;;;;;;2.03;1.80;;;22.90;51.90;;;;;;5009456;28;20450;-86
2022/04/29 04:47:58;;;;;;;2.30;1.77;;;22.90;51.90;;;;;;5009323;28;20165;-86
2022/04/29 04:50:24;;;;;;;2.63;1.83;;;22.90;51.90;;;;;;5009157;28;20454;-85
2022/04/29 04:52:49;;;;;;;3.37;2.50;;;22.90;51.90;;;;;;5009757;28;20456;-85
2022/04/29 04:55:15;;;;;;;2.80;2.60;;;22.90;51.90;;;;;;5008845;28;20173;-85
2022/04/29 04:57:41;;;;;;;3.20;2.63;;;22.90;51.90;;;;;;5010451;28;20173;-85
2022/04/29 05:00:07;;;;;;;2.77;2.50;;;22.90;51.80;;;;;;5010019;28;20185;-85
2022/04/29 05:02:33;;;;;;;2.93;2.40;;;22.90;51.80;;;;;;5012176;28;20177;-86
2022/04/29 05:04:59;;;;;;;2.80;2.00;;;22.90;51.80;;;;;;5011117;28;20431;-86
2022/04/29 05:07:25;;;;;;;2.70;2.17;;;22.90;51.80;;;;;;5010411;28;20193;-85
2022/04/29 05:13:13;;;;;;;4.40;2.57;;;22.90;51.80;;;;;;5011325;28;21017;-85
2022/04/29 05:15:42;;;;;;;2.70;2.50;;;22.90;51.80;;;;;;5010647;28;20416;-85
2022/04/29 05:18:09;;;;;;;2.67;2.30;;;22.90;51.80;;;;;;5010412;28;20177;-85
2022/04/29 05:20:34;;;;;;;2.60;2.23;;;22.90;51.80;;;;;;5010919;28;20409;-85
2022/04/29 05:23:00;;;;;;;3.83;2.40;;;22.90;51.80;;;;;;5010551;28;20933;-85
2022/04/29 05:25:26;;;;;;;2.53;2.33;;;22.90;51.80;;;;;;5009702;28;20184;-85
2022/04/29 05:27:53;;;;;;;2.53;2.33;;;22.90;51.80;;;;;;5009944;28;20189;-85
2022/04/29 05:30:19;;;;;;;2.43;2.07;;;22.90;51.80;;;;;;5009273;28;20432;-85
2022/04/29 05:32:46;;;;;;;2.47;1.87;;;22.90;51.80;;;;;;5010447;28;20456;-85
2022/04/29 05:35:13;;;;;;;3.37;2.47;;;22.90;51.80;;;;;;5011494;28;20242;-85
2022/04/29 05:37:42;;;;;;;2.77;2.20;;;22.90;51.80;;;;;;5011197;28;20421;-85
2022/04/29 05:42:53;;;;;;;2.93;2.27;;;22.90;51.80;;;;;;5011001;28;20408;-85
2022/04/29 05:45:19;;;;;;;2.30;2.10;;;22.90;51.80;;;;;;5011693;28;20412;-85
2022/04/29 05:47:45;;;;;;;3.10;2.30;;;22.90;51.80;;;;;;5011106;28;20515;-85
2022/04/29 05:50:12;;;;;;;2.10;1.90;;;22.90;51.80;;;;;;5010308;28;20181;-85
2022/04/29 05:52:38;;;;;;;2.30;2.07;;;22.90;51.80;;;;;;5011204;28;20205;-86
2022/04/29 05:55:04;;;;;;;2.37;2.17;;;22.90;51.80;;;;;;5009634;28;20424;-85
2022/04/29 05:57:30;;;;;;;2.33;1.97;;;22.90;51.80;;;;;;5011180;28;20173;-85
2022/04/29 05:59:58;;;;;;;2.60;2.40;;;22.90;51.80;;;;;;5011064;28;20416;-85
2022/04/29 06:02:26;;;;;;;2.27;2.03;;;23.00;51.90;;;;;;5011130;28;20440;-85
2022/04/29 06:04:53;;;;;;;2.00;1.80;;;22.90;51.80;;;;;;5010893;28;20412;-85
2022/04/29 06:07:19;;;;;;;2.30;2.03;;;23.00;51.90;;;;;;5009293;28;20488;-85
2022/04/29 06:09:46;;;;;;;1.90;1.80;;;23.00;51.90;;;;;;5010922;28;20427;-85
2022/04/29 06:12:11;;;;;;;2.50;2.20;;;23.00;51.90;;;;;;5010916;28;20484;-85
2022/04/29 06:14:38;;;;;;;2.57;2.37;;;23.00;51.90;;;;;;5010569;28;20248;-85
2022/04/29 06:17:05;;;;;;;2.73;2.53;;;23.00;51.90;;;;;;5010683;28;20177;-85
2022/04/29 06:19:31;;;;;;;2.73;1.90;;;23.00;51.90;;;;;;5010728;28;20479;-85
2022/04/29 06:21:57;;;;;;;2.70;2.37;;;23.00;51.90;;;;;;5009531;28;20412;-84
2022/04/29 06:24:23;;;;;;;2.30;2.07;;;23.00;51.90;;;;;;5010324;28;20174;-84
2022/04/29 06:26:48;;;;;;;2.40;2.20;;;23.00;51.90;;;;;;5010658;28;20264;-84
2022/04/29 06:29:15;;;;;;;2.77;2.23;;;23.00;51.90;;;;;;5010372;28;20203;-84
2022/04/29 06:31:41;;;;;;;2.13;1.93;;;23.00;51.90;;;;;;5009799;28;20465;-84
2022/04/29 06:34:07;;;;;;;2.30;1.90;;;23.00;51.90;;;;;;5006719;28;20436;-84
2022/04/29 06:36:33;;;;;;;2.30;2.10;;;23.00;51.90;;;;;;5008895;28;20416;-83
2022/04/29 06:39:00;;;;;;;3.50;2.23;;;23.00;52.40;;;;;;5010265;28;20422;-83
2022/04/29 06:41:45;;;;;;;;;;;;;;;;;;;;;
2022/04/29 06:44:13;;;;;;;2.43;2.20;;;23.00;51.90;;;;;;5009764;28;20420;-84
2022/04/29 06:46:40;;;;;;;2.33;2.00;;;23.00;51.90;;;;;;5010925;28;20421;-84
2022/04/29 06:49:06;;;;;;;2.50;2.30;;;23.00;51.90;;;;;;5026059;28;20424;-85
2022/04/29 06:51:32;;;;;;;2.17;1.80;;;23.00;51.90;;;;;;5026128;28;20212;-85
2022/04/29 06:53:59;;;;;;;2.53;2.00;;;23.00;51.90;;;;;;5008483;28;20571;-85
2022/04/29 06:56:25;;;;;;;3.13;2.20;;;23.00;51.90;;;;;;5009493;28;20180;-84
2022/04/29 06:58:50;;;;;;;2.20;2.00;;;23.00;51.90;;;;;;5010018;28;20416;-85
2022/04/29 07:01:16;;;;;;;4.60;2.37;;;23.00;51.90;;;;;;5009973;28;20173;-85
2022/04/29 07:03:43;;;;;;;3.10;2.20;;;23.00;51.90;;;;;;5010153;28;20413;-85
2022/04/29 07:06:10;;;;;;;3.93;2.50;;;23.00;52.40;;;;;;5010361;28;20264;-84
2022/04/29 07:08:37;;;;;;;2.40;2.07;;;23.00;51.90;;;;;;5008621;28;20424;-85
2022/04/29 07:11:06;;;;;;;2.53;2.27;;;23.00;51.90;;;;;;5008982;28;20456;-85
2022/04/29 07:13:32;;;;;;;4.07;2.40;;;23.00;51.90;;;;;;5008361;28;20444;-84
2022/04/29 07:15:58;;;;;;;2.00;1.80;;;23.00;51.90;;;;;;5009731;28;20423;-84
2022/04/29 07:18:24;;;;;;;2.20;2.00;;;23.10;52.00;;;;;;4992769;28;20433;-83
2022/04/29 07:20:50;;;;;;;2.00;1.80;;;23.00;51.90;;;;;;5009461;28;20528;-84
2022/04/29 07:23:16;;;;;;;2.07;1.70;;;23.00;51.90;;;;;;5007309;28;20484;-84
2022/04/29 07:25:41;;;;;;;2.90;2.20;;;23.00;51.90;;;;;;5008278;28;20197;-84
2022/04/29 07:28:07;;;;;;;1.97;1.70;;;23.00;51.90;;;;;;5008839;28;20166;-84
2022/04/29 07:30:33;;;;;;;3.07;1.83;;;23.00;51.90;;;;;;5023047;28;20198;-84
2022/04/29 07:32:59;;;;;;;3.67;2.00;;;23.10;52.00;;;;;;4991747;28;20462;-83
2022/04/29 07:43:49;;;;;;;2.17;1.97;;;23.00;51.90;;;;;;5010257;28;20400;-83
2022/04/29 07:46:16;;;;;;;2.07;1.87;;;23.00;52.00;;;;;;5009039;28;20427;-83
2022/04/29 07:48:42;;;;;;;2.27;2.10;;;23.00;52.00;;;;;;5024834;28;20428;-84
2022/04/29 07:51:08;;;;;;;2.43;2.00;;;23.10;52.00;;;;;;5007375;28;20478;-85
2022/04/29 07:53:35;;;;;;;1.90;1.63;;;23.10;52.00;;;;;;5007720;28;20886;-85
2022/04/29 07:56:01;;;;;;;2.13;1.73;;;23.10;52.00;;;;;;5022109;28;20173;-84
2022/04/29 07:58:27;;;;;;;1.83;1.60;;;23.10;52.00;;;;;;4990478;28;20432;-85
2022/04/29 08:00:55;;;;;;;2.47;1.90;;;23.10;52.00;;;;;;5007435;28;20404;-84
2022/04/29 08:03:21;;;;;;;2.40;1.97;;;23.10;52.00;;;;;;5007360;28;20161;-85
2022/04/29 08:05:47;;;;;;;2.50;2.03;;;23.10;52.00;;;;;;5006085;28;20416;-84
2022/04/29 08:08:13;;;;;;;1.77;1.67;;;23.10;52.00;;;;;;5004406;28;20424;-84
2022/04/29 08:10:39;;;;;;;2.33;1.90;;;23.10;52.00;;;;;;5005162;28;20433;-84
2022/04/29 08:13:07;;;;;;;3.03;2.20;;;23.10;52.00;;;;;;5006662;28;20219;-85
2022/04/29 08:15:33;;;;;;;1.90;1.77;;;23.10;52.00;;;;;;5007593;28;20409;-85
2022/04/29 08:17:59;;;;;;;1.97;1.77;;;23.10;52.00;;;;;;5008202;28;20916;-85
2022/04/29 08:20:26;;;;;;;2.03;1.83;;;23.10;51.90;;;;;;5023826;28;20200;-84
2022/04/29 08:22:52;;;;;;;2.10;1.90;;;23.10;51.90;;;;;;5007961;28;20184;-85
2022/04/29 08:25:19;;;;;;;2.67;1.80;;;23.10;51.90;;;;;;5007923;28;20930;-85
2022/04/29 08:27:46;;;;;;;1.93;1.73;;;23.10;51.90;;;;;;5007303;28;20416;-85
2022/04/29 08:30:12;;;;;;;3.57;1.97;;;23.10;52.00;;;;;;5007299;28;20456;-85
2022/04/29 08:32:43;;;;;;;1.90;1.70;;;23.10;51.90;;;;;;5007035;28;20456;-85
2022/04/29 08:35:10;;;;;;;2.20;1.90;;;23.10;51.90;;;;;;5007413;28;20413;-84
2022/04/29 08:37:39;;;;;;;2.50;1.90;;;23.10;51.90;;;;;;5008550;28;20413;-85
2022/04/29 08:40:07;;;;;;;2.03;1.70;;;23.10;51.90;;;;;;5007309;28;20435;-85
2022/04/29 08:42:37;;;;;;;2.30;1.90;;;23.10;51.90;;;;;;5006670;28;20428;-85
2022/04/29 08:45:10;;;;;;;1.90;1.67;;;23.20;52.00;;;;;;5008287;28;20413;-85
2022/04/29 08:47:38;;;;;;;2.90;2.00;;;23.10;51.90;;;;;;5008623;28;20412;-85
2022/04/29 08:50:11;;;;;;;2.80;1.80;;;23.10;51.90;;;;;;5007032;28;20453;-85
2022/04/29 08:52:37;;;;;;;1.90;1.63;;;23.10;52.00;;;;;;5007178;28;20464;-85
2022/04/29 09:00:39;;;;;;;2.87;2.40;;;23.20;52.00;;;;;;5008430;28;20395;-85
2022/04/29 09:03:31;;;;;;;2.47;1.83;;;23.10;52.00;;;;;;5007865;28;20419;-85
2022/04/29 09:05:57;;;;;;;3.03;1.90;;;23.20;52.10;;;;;;4968761;29;20433;-85
2022/04/29 09:08:24;;;;;;;2.30;1.73;;;23.10;52.00;;;;;;4952315;29;20430;-85
2022/04/29 09:10:58;;;;;;;2.13;1.70;;;23.10;52.00;;;;;;4953091;29;20194;-85
2022/04/29 09:13:25;;;;;;;1.47;1.37;;;23.10;52.50;;;;;;4954509;28;20453;-85
2022/04/29 09:16:11;;;;;;;2.17;1.73;;;23.20;52.10;;;;;;4952997;29;20418;-84
2022/04/29 09:18:53;;;;;;;2.47;1.90;;;23.20;52.00;;;;;;4953972;29;20425;-85
2022/04/29 09:21:30;;;;;;;1.53;1.43;;;23.20;52.00;;;;;;4971093;29;20398;-85
2022/04/29 09:24:20;;;;;;;1.87;1.63;;;23.10;52.00;;;;;;4954620;29;20426;-85
2022/04/29 09:26:46;;;;;;;2.03;1.63;;;23.10;52.00;;;;;;4971320;29;20410;-85
2022/04/29 09:29:17;;;;;;;2.43;1.70;;;23.10;52.00;;;;;;4955346;29;20425;-85
2022/04/29 09:32:24;;;;;;;;;;;;;;;;;;;;;
2022/04/29 09:34:55;;;;;;;2.43;2.00;;;23.20;52.00;;;;;;4972530;29;20410;-85
2022/04/29 09:37:28;;;;;;;1.70;1.60;;;23.10;52.00;;;;;;4939669;28;20489;-84
2022/04/29 09:40:02;;;;;;;1.93;1.50;;;23.20;52.10;;;;;;4955169;29;20414;-84
2022/04/29 09:42:43;;;;;;;1.67;1.50;;;23.20;52.10;;;;;;4967793;28;20430;-83
2022/04/29 09:45:24;;;;;;;3.63;2.30;;;23.20;52.10;;;;;;4991647;28;20405;-83
2022/04/29 09:47:59;;;;;;;1.83;1.60;;;23.20;52.10;;;;;;4993634;28;20899;-83
2022/04/29 09:50:47;;;;;;;1.70;1.43;;;23.20;52.10;;;;;;4991627;28;20452;-83
2022/04/29 09:53:18;;;;;;;2.43;1.60;;;23.20;52.10;;;;;;5008273;28;20437;-84
2022/04/29 09:56:07;;;;;;;1.93;1.70;;;23.20;52.10;;;;;;4993922;28;20425;-84
2022/04/29 09:58:33;;;;;;;2.10;1.40;;;23.20;52.10;;;;;;4992313;28;20414;-83
2022/04/29 10:01:04;;;;;;;1.80;1.70;;;23.20;52.10;;;;;;4992210;28;20437;-83
2022/04/29 10:03:35;;;;;;;1.43;1.33;;;23.20;52.10;;;;;;4992307;28;20389;-83
2022/04/29 10:06:02;;;;;;;1.50;1.40;;;23.20;52.00;;;;;;4991262;28;20485;-83
2022/04/29 10:08:36;;;;;;;1.80;1.57;;;23.20;52.00;;;;;;4990958;28;20401;-84
2022/04/29 10:11:02;;;;;;;2.00;1.57;;;23.20;52.00;;;;;;4990501;28;20405;-84
2022/04/29 10:13:32;;;;;;;1.80;1.50;;;23.20;52.00;;;;;;4992151;28;20425;-84
2022/04/29 10:16:01;;;;;;;2.27;1.77;;;23.20;52.10;;;;;;4991363;28;20405;-85
2022/04/29 10:21:20;;;;;;;1.77;1.50;;;23.20;52.00;;;;;;4992811;28;20400;-84
2022/04/29 10:23:51;;;;;;;3.13;1.60;;;23.20;52.00;;;;;;4991868;28;20512;-85
2022/04/29 10:26:19;;;;;;;1.50;1.40;;;23.20;52.00;;;;;;4992645;28;20445;-84
2022/04/29 10:28:49;;;;;;;1.73;1.47;;;23.20;52.00;;;;;;4991064;28;20510;-84
2022/04/29 10:31:20;;;;;;;1.83;1.73;;;23.20;52.00;;;;;;4993474;28;20472;-84
2022/04/29 10:33:46;;;;;;;2.70;1.30;;;23.20;52.00;;;;;;4990758;28;20445;-84
2022/04/29 10:36:16;;;;;;;2.23;1.50;;;23.20;52.00;;;;;;4991003;28;20425;-84
2022/04/29 10:38:46;;;;;;;1.70;1.60;;;23.20;52.00;;;;;;5000332;28;20476;-84
2022/04/29 10:41:30;;;;;;;1.90;1.73;;;23.20;52.00;;;;;;5010856;28;20438;-84
2022/04/29 10:44:19;;;;;;;1.70;1.57;;;23.20;52.00;;;;;;5011566;28;20455;-83
2022/04/29 10:46:48;;;;;;;1.60;1.50;;;23.20;52.00;;;;;;5011972;28;20416;-85
2022/04/29 10:49:31;;;;;;;3.50;1.83;;;23.20;52.00;;;;;;5010976;28;20427;-85
2022/04/29 10:52:00;;;;;;;1.50;1.30;;;23.20;52.00;;;;;;5009845;28;20464;-84
2022/04/29 10:55:00;;;;;;;1.53;1.43;;;23.20;52.00;;;;;;5009452;28;20416;-85
2022/04/29 10:57:48;;;;;;;1.63;1.53;;;23.20;52.10;;;;;;5008474;28;20412;-85
2022/04/29 11:00:22;;;;;;;1.90;1.70;;;23.20;52.10;;;;;;4992324;28;20420;-85
2022/04/29 11:02:49;;;;;;;1.50;1.40;;;23.20;52.10;;;;;;4992163;28;20474;-84
2022/04/29 11:05:35;;;;;;;1.70;1.40;;;23.20;52.10;;;;;;4992840;28;20412;-83
2022/04/29 11:08:11;;;;;;;2.10;1.60;;;23.20;52.10;;;;;;4992351;28;20420;-84
2022/04/29 11:11:14;;;;;;;1.60;1.40;;;23.20;52.10;;;;;;4992165;28;20418;-84
2022/04/29 11:13:57;;;;;;;1.83;1.53;;;23.20;52.10;;;;;;5035748;28;20433;-84
2022/04/29 11:16:56;;;;;;;1.70;1.40;;;23.20;52.10;;;;;;5035532;28;20418;-83
2022/04/29 11:19:33;;;;;;;1.70;1.60;;;23.20;52.10;;;;;;5032097;28;20407;-84
2022/04/29 11:25:07;;;;;;;1.63;1.50;;;23.20;52.10;;;;;;5050827;28;20449;-83
2022/04/29 11:27:49;;;;;;;1.83;1.50;;;23.20;52.10;;;;;;5048958;28;20518;-83
2022/04/29 11:30:15;;;;;;;2.20;2.00;;;23.20;52.20;;;;;;5032594;28;20523;-84
2022/04/29 11:36:25;;;;;;;2.27;2.00;;;23.20;52.00;;;;;;5033008;28;20188;-85
2022/04/29 11:38:51;;;;;;;2.50;1.50;;;23.20;52.00;;;;;;5016556;28;20425;-84
2022/04/29 11:41:30;;;;;;;2.03;1.83;;;23.10;52.00;;;;;;5015594;28;20443;-84
2022/04/29 11:43:58;;;;;;;2.20;2.03;;;23.10;52.00;;;;;;5016069;28;20430;-83
2022/04/29 11:46:27;;;;;;;1.53;1.37;;;23.10;52.00;;;;;;5015267;28;20423;-84
2022/04/29 11:48:58;;;;;;;2.10;1.87;;;23.20;52.00;;;;;;5010340;28;20420;-84
2022/04/29 11:51:27;;;;;;;1.70;1.60;;;23.20;52.00;;;;;;5011401;28;20444;-84
2022/04/29 11:53:59;;;;;;;1.67;1.57;;;23.20;52.00;;;;;;5010423;28;20416;-84
2022/04/29 11:56:46;;;;;;;1.90;1.40;;;23.20;52.00;;;;;;5010976;28;20408;-84
2022/04/29 11:59:15;;;;;;;1.87;1.40;;;23.20;52.00;;;;;;5009685;28;20400;-84
2022/04/29 12:01:41;;;;;;;1.70;1.53;;;23.20;52.00;;;;;;5010073;28;20428;-84
2022/04/29 12:04:33;;;;;;;1.63;1.53;;;23.20;52.00;;;;;;4993349;28;20424;-83
2022/04/29 12:06:59;;;;;;;1.53;1.40;;;23.20;52.00;;;;;;5003691;28;20435;-83
2022/04/29 12:09:56;;;;;;;3.07;2.00;;;23.10;52.00;;;;;;5009140;28;20407;-83
2022/04/29 12:12:29;;;;;;;1.87;1.60;;;23.20;52.00;;;;;;5008803;28;20448;-84
2022/04/29 12:15:04;;;;;;;1.87;1.70;;;23.10;52.00;;;;;;5010455;28;20451;-84
2022/04/29 12:17:36;;;;;;;2.23;1.60;;;23.10;52.00;;;;;;4994326;28;20423;-83
2022/04/29 12:20:04;;;;;;;1.43;1.27;;;23.10;52.00;;;;;;5009600;28;20412;-84
2022/04/29 12:22:34;;;;;;;1.50;1.40;;;23.10;52.00;;;;;;5009066;28;20442;-84
2022/04/29 12:25:26;;;;;;;1.23;1.10;;;23.10;52.00;;;;;;5010796;28;20603;-84
2022/04/29 12:28:19;;;;;;;2.00;1.40;;;23.20;52.00;;;;;;5025965;28;20413;-84
2022/04/29 12:37:06;;;;;;;1.57;1.43;;;23.10;52.00;;;;;;4995490;28;20396;-84
2022/04/29 12:39:47;;;;;;;1.80;1.50;;;23.10;52.10;;;;;;4995787;28;20408;-84
2022/04/29 12:42:17;;;;;;;1.30;1.20;;;23.10;52.10;;;;;;5013234;28;20480;-84
2022/04/29 12:45:04;;;;;;;1.53;1.43;;;23.10;52.00;;;;;;5013249;28;20408;-83
2022/04/29 12:47:40;;;;;;;2.33;2.13;;;23.10;52.00;;;;;;4996524;28;20416;-82
2022/04/29 12:50:31;;;;;;;1.80;1.70;;;23.10;52.00;;;;;;5012420;28;20510;-83
2022/04/29 12:53:18;;;;;;;1.50;1.40;;;23.10;52.00;;;;;;5012344;28;20452;-83
2022/04/29 12:56:05;;;;;;;1.40;1.30;;;23.10;52.10;;;;;;4995954;28;20404;-84
2022/04/29 12:58:30;;;;;;;2.70;1.67;;;23.10;52.10;;;;;;5038294;28;20476;-84
2022/04/29 13:01:06;;;;;;;2.10;1.67;;;23.10;52.10;;;;;;5037985;28;20418;-83
2022/04/29 13:03:34;;;;;;;1.57;1.47;;;23.10;52.00;;;;;;5038448;28;20179;-85
2022/04/29 13:06:01;;;;;;;1.60;1.50;;;23.10;52.00;;;;;;5038612;28;20497;-84
2022/04/29 13:08:29;;;;;;;1.63;1.53;;;23.10;52.00;;;;;;5055448;28;20465;-85
2022/04/29 13:11:03;;;;;;;1.83;1.73;;;23.10;52.00;;;;;;5017522;28;20407;-84
2022/04/29 13:13:32;;;;;;;1.80;1.60;;;23.10;52.00;;;;;;5018691;28;20438;-84
2022/04/29 13:15:58;;;;;;;2.67;1.80;;;23.10;52.00;;;;;;5017747;28;20411;-84
2022/04/29 13:21:49;;;;;;;1.70;1.60;;;23.10;52.00;;;;;;5034771;28;20191;-84
2022/04/29 13:24:15;;;;;;;1.73;1.63;;;23.10;52.00;;;;;;5017166;28;20403;-85
2022/04/29 13:26:41;;;;;;;1.67;1.57;;;23.10;52.10;;;;;;5002124;28;20434;-84
2022/04/29 13:29:08;;;;;;;1.67;1.50;;;23.10;52.00;;;;;;5034814;28;20479;-84
2022/04/29 13:34:57;;;;;;;1.70;1.60;;;23.10;52.00;;;;;;5031259;28;20381;-83
2022/04/29 13:37:25;;;;;;;1.87;1.60;;;23.10;52.10;;;;;;4980759;28;20488;-84
2022/04/29 13:39:52;;;;;;;1.77;1.67;;;23.10;52.20;;;;;;5015405;28;20424;-83
2022/04/29 13:42:25;;;;;;;1.90;1.60;;;23.10;52.10;;;;;;5015909;28;20420;-83
2022/04/29 13:45:00;;;;;;;1.60;1.50;;;23.10;52.10;;;;;;5012980;28;20439;-83